createdAt,value
2023-10-20T00:00:38.385Z,13.53
2023-10-20T00:03:05.088Z,13.57
2023-10-20T00:05:31.747Z,13.57
2023-10-20T00:07:58.589Z,13.56
2023-10-20T00:10:25.508Z,13.57
2023-10-20T00:12:52.234Z,13.55
2023-10-20T00:15:21.302Z,13.54
2023-10-20T00:17:48.082Z,13.54
2023-10-20T00:20:14.755Z,13.53
2023-10-20T00:22:41.822Z,13.50
2023-10-20T00:25:08.450Z,13.52
2023-10-20T00:27:35.776Z,13.51
2023-10-20T00:30:03.800Z,13.53
2023-10-20T00:32:32.273Z,13.52
2023-10-20T00:34:58.945Z,13.54
2023-10-20T00:37:26.255Z,13.51
2023-10-20T00:39:52.849Z,13.50
2023-10-20T00:42:19.376Z,13.48
2023-10-20T00:44:45.930Z,13.44
2023-10-20T00:47:12.473Z,13.44
2023-10-20T00:49:39.071Z,13.42
2023-10-20T00:52:05.662Z,13.41
2023-10-20T00:54:32.541Z,13.36
2023-10-20T00:56:59.270Z,13.35
2023-10-20T00:59:25.882Z,13.36
2023-10-20T01:01:52.420Z,13.36
2023-10-20T01:04:20.703Z,13.33
2023-10-20T01:06:49.406Z,13.31
2023-10-20T01:09:26.339Z,13.28
2023-10-20T01:11:53.247Z,13.27
2023-10-20T01:14:19.891Z,13.23
2023-10-20T01:16:46.756Z,13.20
2023-10-20T01:19:13.294Z,13.18
2023-10-20T01:21:39.820Z,13.16
2023-10-20T01:24:06.588Z,13.14
2023-10-20T01:26:33.149Z,13.13
2023-10-20T01:28:59.925Z,13.21
2023-10-20T01:31:26.661Z,13.19
2023-10-20T01:33:53.259Z,13.16
2023-10-20T01:36:19.854Z,13.20
2023-10-20T01:38:46.334Z,13.19
2023-10-20T01:41:12.940Z,13.19
2023-10-20T01:43:39.477Z,13.21
2023-10-20T01:46:06.030Z,13.17
2023-10-20T01:48:32.557Z,13.19
2023-10-20T01:51:01.163Z,13.15
2023-10-20T01:53:27.680Z,13.14
2023-10-20T01:55:55.029Z,13.20
2023-10-20T01:58:21.757Z,13.17
2023-10-20T02:00:51.859Z,13.19
2023-10-20T02:03:19.189Z,13.18
2023-10-20T02:05:45.999Z,13.19
2023-10-20T02:08:12.655Z,13.26
2023-10-20T02:10:39.207Z,13.35
2023-10-20T02:13:05.763Z,13.38
2023-10-20T02:15:32.344Z,13.33
2023-10-20T02:18:01.786Z,13.33
2023-10-20T02:20:28.595Z,13.36
2023-10-20T02:22:55.253Z,13.37
2023-10-20T02:25:21.844Z,13.37
2023-10-20T02:27:48.485Z,13.39
2023-10-20T02:30:15.800Z,13.45
2023-10-20T02:32:42.679Z,13.46
2023-10-20T02:35:09.478Z,13.46
2023-10-20T02:37:36.031Z,13.46
2023-10-20T02:40:06.068Z,13.52
2023-10-20T02:42:33.100Z,13.52
2023-10-20T02:45:00.000Z,13.51
2023-10-20T02:47:26.738Z,13.51
2023-10-20T02:49:54.752Z,13.46
2023-10-20T02:52:21.302Z,13.49
2023-10-20T02:54:48.629Z,13.47
2023-10-20T02:57:15.307Z,13.46
2023-10-20T02:59:41.856Z,13.46
2023-10-20T03:02:08.553Z,13.50
2023-10-20T03:04:35.328Z,13.50
2023-10-20T03:07:02.174Z,13.48
2023-10-20T03:09:28.662Z,13.44
2023-10-20T03:11:55.205Z,13.47
2023-10-20T03:14:22.513Z,13.44
2023-10-20T03:16:49.254Z,13.43
2023-10-20T03:19:16.110Z,13.42
2023-10-20T03:21:43.887Z,13.35
2023-10-20T03:24:10.533Z,13.36
2023-10-20T03:26:37.352Z,13.31
2023-10-20T03:29:06.067Z,13.32
2023-10-20T03:31:33.985Z,13.31
2023-10-20T03:34:01.216Z,13.27
2023-10-20T03:36:28.674Z,13.17
2023-10-20T03:38:55.225Z,13.13
2023-10-20T03:41:23.899Z,13.09
2023-10-20T03:43:52.029Z,13.09
2023-10-20T03:46:19.973Z,13.09
2023-10-20T03:48:46.897Z,13.08
2023-10-20T03:51:14.194Z,12.99
2023-10-20T03:53:55.413Z,12.97
2023-10-20T03:56:23.654Z,12.96
2023-10-20T03:58:50.462Z,13.03
2023-10-20T04:01:17.146Z,12.98
2023-10-20T04:03:46.390Z,12.96
2023-10-20T04:06:14.408Z,12.98
2023-10-20T04:08:41.054Z,12.93
2023-10-20T04:11:07.671Z,12.95
2023-10-20T04:13:34.485Z,12.95
2023-10-20T04:16:13.499Z,12.95
2023-10-20T04:18:43.937Z,12.96
2023-10-20T04:21:13.180Z,12.98
2023-10-20T04:23:40.616Z,13.02
2023-10-20T04:26:17.992Z,13.02
2023-10-20T04:28:44.607Z,13.02
2023-10-20T04:31:31.304Z,12.97
2023-10-20T04:34:17.258Z,12.96
2023-10-20T04:37:02.365Z,12.95
2023-10-20T04:39:47.794Z,12.90
2023-10-20T04:42:26.510Z,12.89
2023-10-20T04:44:53.114Z,12.93
2023-10-20T04:47:58.082Z,12.96
2023-10-20T04:50:43.283Z,12.92
2023-10-20T04:53:09.887Z,12.93
2023-10-20T04:55:36.463Z,12.93
2023-10-20T04:58:15.013Z,12.92
2023-10-20T05:00:44.564Z,12.89
2023-10-20T05:03:14.096Z,12.90
2023-10-20T05:05:44.518Z,12.92
2023-10-20T05:08:14.109Z,12.95
2023-10-20T05:10:43.144Z,12.96
2023-10-20T05:13:10.125Z,12.95
2023-10-20T05:15:44.843Z,12.95
2023-10-20T05:18:16.328Z,12.86
2023-10-20T05:20:43.497Z,12.84
2023-10-20T05:23:11.894Z,12.85
2023-10-20T05:25:45.499Z,12.80
2023-10-20T05:28:12.014Z,12.78
2023-10-20T05:30:42.352Z,12.73
2023-10-20T05:33:10.627Z,12.69
2023-10-20T05:35:39.764Z,12.67
2023-10-20T05:38:07.794Z,12.69
2023-10-20T05:40:36.353Z,12.71
2023-10-20T05:43:04.616Z,12.73
2023-10-20T05:45:34.247Z,12.73
2023-10-20T05:48:02.158Z,12.72
2023-10-20T05:50:28.996Z,12.69
2023-10-20T05:52:55.567Z,12.64
2023-10-20T05:55:24.240Z,12.68
2023-10-20T05:57:50.916Z,12.71
2023-10-20T06:00:17.678Z,12.67
2023-10-20T06:02:45.105Z,12.61
2023-10-20T06:05:11.737Z,12.61
2023-10-20T06:07:38.365Z,12.61
2023-10-20T06:10:05.093Z,12.63
2023-10-20T06:12:31.644Z,12.57
2023-10-20T06:14:58.142Z,12.52
2023-10-20T06:17:24.802Z,12.50
2023-10-20T06:19:51.444Z,12.47
2023-10-20T06:22:18.158Z,12.49
2023-10-20T06:24:48.576Z,12.48
2023-10-20T06:27:15.133Z,12.42
2023-10-20T06:29:47.638Z,12.41
2023-10-20T06:32:14.252Z,12.36
2023-10-20T06:34:43.695Z,12.35
2023-10-20T06:37:10.330Z,12.30
2023-10-20T06:39:38.749Z,12.26
2023-10-20T06:42:05.717Z,12.25
2023-10-20T06:44:32.352Z,12.25
2023-10-20T06:46:59.310Z,12.28
2023-10-20T06:49:25.821Z,12.27
2023-10-20T06:51:52.470Z,12.25
2023-10-20T06:54:19.157Z,12.25
2023-10-20T06:56:45.832Z,12.24
2023-10-20T06:59:15.173Z,12.21
2023-10-20T07:01:44.611Z,12.16
2023-10-20T07:04:11.702Z,12.14
2023-10-20T07:06:38.495Z,12.12
2023-10-20T07:09:15.126Z,12.19
2023-10-20T07:11:42.620Z,12.15
2023-10-20T07:14:09.291Z,12.15
2023-10-20T07:16:35.837Z,12.17
2023-10-20T07:19:02.650Z,12.12
2023-10-20T07:21:29.196Z,12.10
2023-10-20T07:23:56.730Z,12.08
2023-10-20T07:26:24.018Z,12.05
2023-10-20T07:28:50.594Z,12.04
2023-10-20T07:31:19.340Z,12.04
2023-10-20T07:33:45.975Z,12.05
2023-10-20T07:36:12.468Z,12.05
2023-10-20T07:38:40.295Z,12.02
2023-10-20T07:41:07.809Z,12.01
2023-10-20T07:43:34.600Z,12.02
2023-10-20T07:46:01.163Z,12.04
2023-10-20T07:48:27.883Z,12.01
2023-10-20T07:50:55.866Z,12.01
2023-10-20T07:53:22.499Z,12.02
2023-10-20T07:55:49.051Z,12.01
2023-10-20T07:58:16.599Z,12.02
2023-10-20T08:00:43.122Z,12.01
2023-10-20T08:03:12.642Z,12.06
2023-10-20T08:05:39.759Z,12.09
2023-10-20T08:08:06.524Z,12.13
2023-10-20T08:10:33.901Z,12.08
2023-10-20T08:13:00.789Z,12.10
2023-10-20T08:15:29.347Z,12.12
2023-10-20T08:17:56.888Z,12.13
2023-10-20T08:20:23.657Z,12.11
2023-10-20T08:22:50.136Z,12.18
2023-10-20T08:25:16.689Z,12.16
2023-10-20T08:27:43.406Z,12.14
2023-10-20T08:30:10.336Z,12.16
2023-10-20T08:32:37.208Z,12.08
2023-10-20T08:35:06.632Z,12.09
2023-10-20T08:37:33.872Z,12.07
2023-10-20T08:40:00.445Z,12.09
2023-10-20T08:42:27.036Z,12.08
2023-10-20T08:44:53.625Z,12.11
2023-10-20T08:47:21.090Z,12.13
2023-10-20T08:49:47.811Z,12.11
2023-10-20T08:52:14.711Z,12.15
2023-10-20T08:54:42.309Z,12.17
2023-10-20T08:57:09.602Z,12.22
2023-10-20T08:59:39.154Z,12.19
2023-10-20T09:02:06.555Z,12.22
2023-10-20T09:04:35.579Z,12.24
2023-10-20T09:07:05.420Z,12.16
2023-10-20T09:09:33.248Z,12.20
2023-10-20T09:11:59.943Z,12.25
2023-10-20T09:14:26.526Z,12.27
2023-10-20T09:16:56.385Z,12.32
2023-10-20T09:19:23.191Z,12.31
2023-10-20T09:21:49.758Z,12.32
2023-10-20T09:24:17.001Z,12.32
2023-10-20T09:26:44.901Z,12.27
2023-10-20T09:29:11.710Z,12.26
2023-10-20T09:31:38.498Z,12.25
2023-10-20T09:34:08.889Z,12.20
2023-10-20T09:36:36.086Z,12.14
2023-10-20T09:39:04.664Z,12.13
2023-10-20T09:41:31.268Z,12.10
2023-10-20T09:44:08.060Z,12.11
2023-10-20T09:46:34.981Z,12.13
2023-10-20T09:49:02.072Z,12.09
2023-10-20T09:51:28.604Z,12.08
2023-10-20T09:53:55.790Z,12.14
2023-10-20T09:56:22.423Z,12.25
2023-10-20T09:58:50.777Z,12.24
2023-10-20T10:01:17.329Z,12.29
2023-10-20T10:03:49.038Z,12.33
2023-10-20T10:06:17.300Z,12.35
2023-10-20T10:08:48.822Z,12.35
2023-10-20T10:11:22.216Z,12.40
2023-10-20T10:13:55.888Z,12.46
2023-10-20T10:16:22.831Z,12.60
2023-10-20T10:18:50.078Z,12.61
2023-10-20T10:21:30.772Z,12.65
2023-10-20T10:24:12.597Z,12.68
2023-10-20T10:27:08.679Z,12.76
2023-10-20T10:30:23.507Z,12.79
2023-10-20T10:32:50.260Z,12.65
2023-10-20T10:35:17.482Z,12.68
2023-10-20T10:37:45.268Z,12.73
2023-10-20T10:40:16.391Z,12.76
2023-10-20T10:42:46.892Z,12.60
2023-10-20T10:45:16.643Z,12.54
2023-10-20T10:47:44.803Z,12.49
2023-10-20T10:50:11.704Z,12.51
2023-10-20T10:52:38.248Z,12.60
2023-10-20T10:55:05.419Z,12.74
2023-10-20T10:57:32.252Z,12.90
2023-10-20T11:00:01.911Z,12.86
2023-10-20T11:02:28.884Z,12.96
2023-10-20T11:04:55.533Z,12.93
2023-10-20T11:07:23.370Z,13.06
2023-10-20T11:09:49.938Z,13.03
2023-10-20T11:12:18.909Z,12.94
2023-10-20T11:14:45.709Z,12.92
2023-10-20T11:17:13.053Z,13.03
2023-10-20T11:19:39.544Z,13.08
2023-10-20T11:22:13.985Z,13.02
2023-10-20T11:24:40.469Z,12.82
2023-10-20T11:27:08.198Z,12.79
2023-10-20T11:29:46.720Z,12.68
2023-10-20T11:32:19.846Z,12.74
2023-10-20T11:34:46.624Z,12.84
2023-10-20T11:37:14.969Z,12.95
2023-10-20T11:39:41.514Z,12.92
2023-10-20T11:42:08.398Z,12.88
2023-10-20T11:44:35.244Z,13.02
2023-10-20T11:47:01.973Z,13.20
2023-10-20T11:49:28.505Z,13.06
2023-10-20T11:51:56.461Z,12.91
2023-10-20T11:54:23.133Z,13.00
2023-10-20T11:56:49.752Z,13.10
2023-10-20T11:59:17.176Z,13.10
2023-10-20T12:01:44.373Z,13.10
2023-10-20T12:04:12.231Z,13.11
2023-10-20T12:06:38.796Z,13.26
2023-10-20T12:09:14.924Z,13.39
2023-10-20T12:11:41.801Z,13.16
2023-10-20T12:14:10.527Z,12.98
2023-10-20T12:16:37.223Z,12.97
2023-10-20T12:19:05.395Z,13.08
2023-10-20T12:21:31.947Z,13.01
2023-10-20T12:23:58.859Z,12.99
2023-10-20T12:26:28.448Z,12.88
2023-10-20T12:28:56.368Z,12.89
2023-10-20T12:31:23.428Z,12.89
2023-10-20T12:33:50.166Z,12.86
2023-10-20T12:36:19.658Z,12.71
2023-10-20T12:38:46.426Z,12.70
2023-10-20T12:41:13.333Z,12.69
2023-10-20T12:43:39.931Z,12.57
2023-10-20T12:46:06.523Z,12.64
2023-10-20T12:48:33.448Z,12.70
2023-10-20T12:51:06.981Z,12.67
2023-10-20T12:53:33.579Z,12.62
2023-10-20T12:56:01.113Z,12.60
2023-10-20T12:58:27.695Z,12.58
2023-10-20T13:00:54.241Z,12.57
2023-10-20T13:03:20.810Z,12.51
2023-10-20T13:05:47.481Z,12.47
2023-10-20T13:08:14.683Z,12.46
2023-10-20T13:10:41.599Z,12.41
2023-10-20T13:13:10.701Z,12.41
2023-10-20T13:15:38.725Z,12.42
2023-10-20T13:18:05.958Z,12.45
2023-10-20T13:20:32.672Z,12.47
2023-10-20T13:22:59.316Z,12.53
2023-10-20T13:25:25.956Z,12.60
2023-10-20T13:27:54.141Z,12.60
2023-10-20T13:30:20.747Z,12.52
2023-10-20T13:32:47.366Z,12.51
2023-10-20T13:35:14.010Z,12.50
2023-10-20T13:37:40.969Z,12.48
2023-10-20T13:40:10.279Z,12.46
2023-10-20T13:42:36.992Z,12.44
2023-10-20T13:45:05.083Z,12.42
2023-10-20T13:47:32.141Z,12.43
2023-10-20T13:49:58.780Z,12.43
2023-10-20T13:52:25.354Z,12.43
2023-10-20T13:54:51.871Z,12.40
2023-10-20T13:57:18.411Z,12.40
2023-10-20T13:59:45.000Z,12.42
2023-10-20T14:02:11.596Z,12.41
2023-10-20T14:04:38.139Z,12.42
2023-10-20T14:07:04.760Z,12.42
2023-10-20T14:09:31.711Z,12.42
2023-10-20T14:11:58.216Z,12.41
2023-10-20T14:14:24.754Z,12.43
2023-10-20T14:16:53.986Z,12.43
2023-10-20T14:19:20.503Z,12.41
2023-10-20T14:21:47.070Z,12.40
2023-10-20T14:24:13.527Z,12.41
2023-10-20T14:26:40.152Z,12.38
2023-10-20T14:29:06.689Z,12.46
2023-10-20T14:31:33.251Z,12.40
2023-10-20T14:34:00.410Z,12.41
2023-10-20T14:36:27.151Z,12.46
2023-10-20T14:38:53.767Z,12.48
2023-10-20T14:41:20.306Z,12.51
2023-10-20T14:43:46.853Z,12.55
2023-10-20T14:46:14.533Z,12.62
2023-10-20T14:48:41.267Z,12.64
2023-10-20T14:51:08.687Z,12.72
2023-10-20T14:53:38.225Z,12.79
2023-10-20T14:56:04.996Z,12.79
2023-10-20T14:58:34.387Z,12.89
2023-10-20T15:01:00.950Z,12.93
2023-10-20T15:03:28.146Z,12.97
2023-10-20T15:05:54.962Z,12.95
2023-10-20T15:08:21.700Z,12.93
2023-10-20T15:10:48.433Z,12.93
2023-10-20T15:13:16.210Z,12.92
2023-10-20T15:15:42.907Z,12.92
2023-10-20T15:18:09.579Z,12.91
2023-10-20T15:20:38.661Z,12.93
2023-10-20T15:23:14.794Z,12.90
2023-10-20T15:25:44.347Z,12.90
2023-10-20T15:28:10.870Z,12.91
2023-10-20T15:30:37.394Z,12.87
2023-10-20T15:33:04.232Z,12.85
2023-10-20T15:35:30.796Z,12.74
2023-10-20T15:37:58.368Z,12.69
2023-10-20T15:40:25.700Z,12.52
2023-10-20T15:42:52.660Z,12.42
2023-10-20T15:45:20.226Z,12.34
2023-10-20T15:47:49.850Z,12.26
2023-10-20T15:50:16.499Z,12.20
2023-10-20T15:52:42.966Z,12.22
2023-10-20T15:55:09.614Z,12.17
2023-10-20T15:57:36.543Z,12.11
2023-10-20T16:00:03.270Z,11.99
2023-10-20T16:02:29.981Z,11.94
2023-10-20T16:04:56.813Z,11.93
2023-10-20T16:07:23.347Z,11.89
2023-10-20T16:09:49.953Z,11.79
2023-10-20T16:12:16.964Z,11.76
2023-10-20T16:14:43.824Z,11.72
2023-10-20T16:17:10.840Z,11.68
2023-10-20T16:19:37.560Z,11.63
2023-10-20T16:22:04.799Z,11.61
2023-10-20T16:24:31.318Z,11.63
2023-10-20T16:26:59.892Z,11.60
2023-10-20T16:29:26.661Z,11.58
2023-10-20T16:31:53.252Z,11.54
2023-10-20T16:34:24.251Z,11.55
2023-10-20T16:36:50.831Z,11.50
2023-10-20T16:39:19.667Z,11.47
2023-10-20T16:41:46.610Z,11.44
2023-10-20T16:44:13.739Z,11.36
2023-10-20T16:46:41.555Z,11.36
2023-10-20T16:49:08.241Z,11.31
2023-10-20T16:51:34.908Z,11.23
2023-10-20T16:54:01.594Z,11.26
2023-10-20T16:56:28.136Z,11.20
2023-10-20T16:58:54.705Z,11.26
2023-10-20T17:01:22.896Z,11.29
2023-10-20T17:03:49.701Z,11.38
2023-10-20T17:06:16.462Z,11.46
2023-10-20T17:08:43.543Z,11.53
2023-10-20T17:11:11.647Z,11.55
2023-10-20T17:13:38.205Z,11.61
2023-10-20T17:16:05.190Z,11.63
2023-10-20T17:18:32.192Z,11.63
2023-10-20T17:21:12.945Z,11.67
2023-10-20T17:23:39.534Z,11.66
2023-10-20T17:26:06.677Z,11.70
2023-10-20T17:28:33.659Z,11.69
2023-10-20T17:31:01.156Z,11.70
2023-10-20T17:33:27.731Z,11.77
2023-10-20T17:35:54.761Z,11.77
2023-10-20T17:38:21.400Z,11.76
2023-10-20T17:40:48.116Z,11.76
2023-10-20T17:43:14.659Z,11.75
2023-10-20T17:45:41.251Z,11.74
2023-10-20T17:48:08.831Z,11.73
2023-10-20T17:50:41.585Z,11.73
2023-10-20T17:53:09.038Z,11.79
2023-10-20T17:55:38.661Z,11.79
2023-10-20T17:58:05.207Z,11.78
2023-10-20T18:00:31.707Z,11.79
2023-10-20T18:02:58.487Z,11.68
2023-10-20T18:05:27.661Z,11.59
2023-10-20T18:07:54.227Z,11.47
2023-10-20T18:10:20.769Z,11.47
2023-10-20T18:12:48.067Z,11.46
2023-10-20T18:15:14.720Z,11.52
2023-10-20T18:17:41.989Z,11.58
2023-10-20T18:20:08.915Z,11.62
2023-10-20T18:22:35.455Z,11.71
2023-10-20T18:25:02.053Z,11.72
2023-10-20T18:27:28.590Z,11.70
2023-10-20T18:29:55.212Z,11.60
2023-10-20T18:32:22.164Z,11.60
2023-10-20T18:34:48.752Z,11.56
2023-10-20T18:37:15.704Z,11.46
2023-10-20T18:39:42.257Z,11.46
2023-10-20T18:42:09.028Z,11.43
2023-10-20T18:44:35.706Z,11.38
2023-10-20T18:47:02.393Z,11.22
2023-10-20T18:49:28.932Z,11.19
2023-10-20T18:51:55.463Z,11.26
2023-10-20T18:54:22.004Z,11.31
2023-10-20T18:56:48.573Z,11.30
2023-10-20T18:59:15.682Z,11.35
2023-10-20T19:01:42.449Z,11.37
2023-10-20T19:04:09.128Z,11.35
2023-10-20T19:06:35.717Z,11.36
2023-10-20T19:09:04.368Z,11.38
2023-10-20T19:11:31.867Z,11.34
2023-10-20T19:13:58.698Z,11.29
2023-10-20T19:16:25.321Z,11.31
2023-10-20T19:18:51.929Z,11.21
2023-10-20T19:21:18.514Z,11.18
2023-10-20T19:23:45.090Z,11.17
2023-10-20T19:26:11.892Z,11.22
2023-10-20T19:28:39.253Z,11.21
2023-10-20T19:31:08.507Z,11.11
2023-10-20T19:33:35.637Z,10.97
2023-10-20T19:36:08.791Z,10.92
2023-10-20T19:38:35.673Z,10.91
2023-10-20T19:41:02.211Z,10.82
2023-10-20T19:43:28.779Z,10.83
2023-10-20T19:45:56.268Z,10.82
2023-10-20T19:48:23.091Z,10.82
2023-10-20T19:50:49.761Z,10.83
2023-10-20T19:53:16.309Z,10.86
2023-10-20T19:55:44.211Z,10.81
2023-10-20T19:58:10.828Z,10.72
2023-10-20T20:00:37.504Z,10.68
2023-10-20T20:03:04.472Z,10.67
2023-10-20T20:05:31.460Z,10.69
2023-10-20T20:07:58.199Z,10.67
2023-10-20T20:10:24.799Z,10.83
2023-10-20T20:12:51.342Z,10.75
2023-10-20T20:15:18.696Z,10.71
2023-10-20T20:17:45.575Z,10.74
2023-10-20T20:20:13.290Z,10.84
2023-10-20T20:22:39.873Z,10.73
2023-10-20T20:25:06.629Z,10.64
2023-10-20T20:27:33.182Z,10.51
2023-10-20T20:29:59.771Z,10.55
2023-10-20T20:32:26.348Z,10.55
2023-10-20T20:34:52.889Z,10.48
2023-10-20T20:37:20.330Z,10.47
2023-10-20T20:39:47.009Z,10.58
2023-10-20T20:42:13.615Z,10.52
2023-10-20T20:44:40.341Z,10.53
2023-10-20T20:47:06.951Z,10.59
2023-10-20T20:49:35.247Z,10.73
2023-10-20T20:52:02.112Z,10.69
2023-10-20T20:54:28.690Z,10.72
2023-10-20T20:56:55.335Z,10.64
2023-10-20T20:59:21.990Z,10.64
2023-10-20T21:01:48.533Z,10.55
2023-10-20T21:04:15.246Z,10.49
2023-10-20T21:06:41.812Z,10.49
2023-10-20T21:09:10.262Z,10.51
2023-10-20T21:11:37.646Z,10.53
2023-10-20T21:14:04.331Z,10.50
2023-10-20T21:16:31.981Z,10.57
2023-10-20T21:19:01.499Z,10.65
2023-10-20T21:21:28.212Z,10.64
2023-10-20T21:23:54.818Z,10.67
2023-10-20T21:26:22.786Z,10.68
2023-10-20T21:28:49.441Z,10.62
2023-10-20T21:31:15.939Z,10.56
2023-10-20T21:33:42.658Z,10.47
2023-10-20T21:36:13.412Z,10.44
2023-10-20T21:38:39.971Z,10.45
2023-10-20T21:41:06.549Z,10.42
2023-10-20T21:43:33.105Z,10.40
2023-10-20T21:45:59.722Z,10.43
2023-10-20T21:48:26.639Z,10.43
2023-10-20T21:51:00.120Z,10.41
2023-10-20T21:53:26.989Z,10.42
2023-10-20T21:56:03.440Z,10.44
2023-10-20T21:58:30.267Z,10.43
2023-10-20T22:00:56.925Z,10.43
2023-10-20T22:03:23.820Z,10.39
2023-10-20T22:05:53.958Z,10.33
2023-10-20T22:08:20.719Z,10.33
2023-10-20T22:10:47.301Z,10.34
2023-10-20T22:13:13.869Z,10.31
2023-10-20T22:15:40.578Z,10.29
2023-10-20T22:18:07.358Z,10.29
2023-10-20T22:20:34.311Z,10.29
2023-10-20T22:23:01.047Z,10.27
2023-10-20T22:25:27.645Z,10.33
2023-10-20T22:27:54.234Z,10.41
2023-10-20T22:30:20.796Z,10.40
2023-10-20T22:32:47.505Z,10.35
2023-10-20T22:35:14.177Z,10.34
2023-10-20T22:37:40.952Z,10.28
2023-10-20T22:40:07.773Z,10.28
2023-10-20T22:42:34.337Z,10.30
2023-10-20T22:45:00.877Z,10.29
2023-10-20T22:47:27.541Z,10.34
2023-10-20T22:49:54.144Z,10.32
2023-10-20T22:52:20.709Z,10.31
2023-10-20T22:54:47.222Z,10.36
2023-10-20T22:57:13.816Z,10.42
2023-10-20T22:59:40.508Z,10.40
2023-10-20T23:02:07.135Z,10.49
2023-10-20T23:04:33.974Z,10.48
2023-10-20T23:07:00.619Z,10.53
2023-10-20T23:09:27.194Z,10.53
2023-10-20T23:11:54.126Z,10.47
2023-10-20T23:14:20.670Z,10.47
2023-10-20T23:16:47.312Z,10.41
2023-10-20T23:19:14.056Z,10.35
2023-10-20T23:21:40.606Z,10.27
2023-10-20T23:24:07.543Z,10.32
2023-10-20T23:26:34.203Z,10.28
2023-10-20T23:29:00.873Z,10.29
2023-10-20T23:31:27.563Z,10.45
2023-10-20T23:33:54.309Z,10.49
2023-10-20T23:36:20.859Z,10.46
2023-10-20T23:38:54.198Z,10.46
2023-10-20T23:41:20.717Z,10.44
2023-10-20T23:43:47.356Z,10.54
2023-10-20T23:46:13.876Z,10.55
2023-10-20T23:48:40.663Z,10.65
2023-10-20T23:51:07.341Z,10.70
2023-10-20T23:53:33.889Z,10.68
2023-10-20T23:56:00.505Z,10.71
2023-10-20T23:58:27.060Z,10.70
